Kodiak, AK

11:05 AM AKST on February 08, 2016 (GMT -0900)
Kodiak College | | Change Station
CLOSE
Current Station
Personal Weather Station
Location: Kodiak, AK
Elevation: 154 ft
Nearby Weather Stations

Elev 154 ft 57.81 °N, 152.37 °W | Updated 5 minutes ago

Light Rain
Light Rain
39.6 °F
Feels Like 40 °F
N
1.7
Wind Variable Wind from North

Today
High -- | Low -- °F
--% Chance of Precip.
Yesterday
High -- | Low -- °F
Precip. -- in
Pressure 29.51 in
Visibility 10.0 miles
Clouds Scattered Clouds 2300 ft
Mostly Cloudy 2800 ft
Overcast 3500 ft
Windchill 40 °F
Dew Point 38 °F
Humidity 94%
Rainfall 0.42 in
Snow Depth Not available.
8:57 AM 5:51 PM
New Moon, 0% visible
METAR PADQ 081953Z AUTO 12016KT 10SM -RA SCT023 BKN028 OVC035 03/02 A2950 RMK AO2 PK WND 13032/1905 SLP991 P0002 T00330022 TSNO
Pressure 29.51 in
Visibility 10.0 miles
Clouds Scattered Clouds 2300 ft
Mostly Cloudy 2800 ft
Overcast 3500 ft
Windchill 40 °F
Dew Point 38 °F
Humidity 94%
Rainfall 0.42 in
Snow Depth Not available.
8:57 AM 5:51 PM
New Moon, 0% visible
METAR PADQ 081953Z AUTO 12016KT 10SM -RA SCT023 BKN028 OVC035 03/02 A2950 RMK AO2 PK WND 13032/1905 SLP991 P0002 T00330022 TSNO

10-Day Weather Forecast

Almanac

Astronomy

Feb. 08, 2016 Rise Set
Actual Time
Civil Twilight
Nautical Twilight
Astronomical Twilight
Moon
Length of Visible Light
Length of Day
Tomorrow will be .
, % of the Moon is Illuminated

Today's Extremes

State Highs State Lows

Community

WunderPhotos

Upload Photos

1,891,503 photos uploaded!

WunderBlog® & News

Nearby

Air Quality

  Air Quality AQ Index Pollutant
Not available.

Snow Depth

Station Depth Elevation

Earthquake Activity

City Distance Mag. Time & Date
Minimum magnitude displayed is 2.5.

Coastal Water Temperatures

Place Temperature

Stations

Nearby Weather Stations

Station Location Temp. Windchill Dew Point Humidity Wind Precip. Elev Updated Type
                   

Watches & Warnings

There are currently no watches in effect.